Surface observations / UK / EGBB

Quebec | Canada | USA | France | UK | Europe | Elsewhere

Display: Info & Location for EGBB | Help decoding METAR

EGBB BIRMINGHAM AIRPORT -- UK
Raw surface observations for station EGBB
EGBB 222220Z 23005KT 190V260 9999 FEW028 11/08 Q1021=
EGBB 222150Z 22005KT 190V260 CAVOK 11/08 Q1021=
EGBB 222120Z 21005KT 170V250 9999 FEW027 11/08 Q1021=
EGBB 222050Z 20005KT 170V240 9999 SCT028 11/08 Q1021=
EGBB 222020Z 21007KT 170V240 9999 FEW028 11/08 Q1021=
EGBB 221950Z 18006KT 160V220 9999 FEW028 11/08 Q1021=
EGBB 221920Z 18005KT 140V210 9999 SCT030 10/08 Q1021=
EGBB 221850Z 17005KT 9999 SCT030 11/08 Q1022=
EGBB 221820Z 19004KT 160V230 9999 SCT030 11/08 Q1022=
EGBB 221750Z 23004KT 190V310 9999 SCT032 11/08 Q1022=
EGBB 221720Z 22005KT 180V250 9999 BKN031 11/08 Q1022=
EGBB 221650Z 23005KT 200V260 9999 BKN030 11/08 Q1022=
EGBB 221620Z 21006KT 170V270 9999 BKN030 11/08 Q1022=
EGBB 221550Z 21006KT 9999 SCT027 11/08 Q1022=
EGBB 221520Z 24006KT 200V270 9999 SCT035 11/08 Q1023=
EGBB 221450Z 24005KT 180V290 9999 SCT017 BKN033 11/08 Q1023=
EGBB 221420Z 24006KT 200V280 9999 BKN033 11/08 Q1023=
EGBB 221350Z 22005KT 190V260 9999 -RA BKN033 11/08 Q1023=
EGBB 221320Z 22006KT 9000 -DZ BKN032 11/08 Q1024=
EGBB 221250Z 22006KT 180V260 9999 BKN034 11/07 Q1024=
EGBB 221220Z 23006KT 200V270 9999 SCT029 BKN035 12/07 Q1024=
EGBB 221150Z 27007KT 220V290 9999 SCT028 SCT040 12/06 Q1025=
EGBB 221120Z 28009KT 9999 SCT042 12/05 Q1024=
EGBB 221050Z 27009KT 230V300 9999 FEW031 12/05 Q1024=
EGBB 220950Z 25006KT 200V280 CAVOK 10/06 Q1024=
EGBB 220920Z 25006KT CAVOK 10/06 Q1025=
EGBB 220850Z 24005KT 200V270 CAVOK 09/05 Q1024=
EGBB 220820Z 24004KT 190V280 CAVOK 09/05 Q1025=
EGBB 220750Z 24004KT 210V270 CAVOK 07/04 Q1025=
EGBB 220720Z 23004KT 200V260 CAVOK 07/04 Q1024=
EGBB 220650Z 23004KT 190V260 CAVOK 07/04 Q1024=
EGBB 220620Z 24005KT CAVOK 07/04 Q1024=
EGBB 220550Z 25006KT CAVOK 07/04 Q1023=
EGBB 220520Z 25005KT CAVOK 07/04 Q1023=
EGBB 220450Z 24004KT CAVOK 08/03 Q1023=
EGBB 220420Z 28006KT CAVOK 08/03 Q1023=
EGBB 220350Z 25006KT 9999 FEW040 08/04 Q1022=
EGBB 220320Z 24005KT 200V270 CAVOK 08/03 Q1022=
EGBB 220250Z 25004KT 210V280 CAVOK 07/03 Q1022=
EGBB 220220Z 19004KT CAVOK 06/03 Q1022=
EGBB 220150Z AUTO 25005KT 9999 SCT040/// BKN049/// 07/03 Q1022=
EGBB 220120Z AUTO VRB03KT 9999 NCD 05/02 Q1022=
EGBB 220050Z AUTO 18005KT 9999 NCD 04/01 Q1022=
EGBB 220020Z 20005KT 160V260 CAVOK 06/01 Q1021=
EGBB 212350Z 25006KT 9999 FEW046 07/01 Q1021=
EGBB 212320Z 26007KT 230V310 CAVOK 07/02 Q1021=
EGBB 212250Z 27007KT CAVOK 07/02 Q1020=
EGBB 212220Z 29006KT 9999 FEW045 07/02 Q1020=